Time;durP1;ratioP1;P1;durP2;ratioP2;P2;SDS_P1;SDS_P2;PMS_P1;PMS_P2;Temp;Humidity;BMP_temperature;BMP_pressure;BME280_temperature;BME280_humidity;BME280_pressure;Samples;Min_cycle;Max_cycle;Signal;HPM_P1;HPM_P2
2021/10/25 00:08:30;;;;;;;9.52;3.72;;;6.80;99.90;;;;;;6700360;88;20226;-74
2021/10/25 00:18:30;;;;;;;7.75;3.67;;;6.50;99.90;;;;;;6717654;88;20210;-74
2021/10/25 00:28:32;;;;;;;7.35;3.95;;;6.20;99.90;;;;;;6721492;88;20199;-76
2021/10/25 00:38:32;;;;;;;9.90;4.25;;;6.10;99.90;;;;;;6700181;88;20195;-73
2021/10/25 00:48:34;;;;;;;9.55;4.30;;;6.10;99.90;;;;;;6699174;88;20166;-75
2021/10/25 00:58:35;;;;;;;8.00;3.85;;;6.10;99.90;;;;;;6698244;88;20209;-75
2021/10/25 01:08:37;;;;;;;9.27;4.37;;;6.20;99.90;;;;;;6707968;88;20287;-75
2021/10/25 01:18:38;;;;;;;10.45;4.37;;;6.20;99.90;;;;;;6699618;88;20213;-75
2021/10/25 01:28:40;;;;;;;10.23;4.43;;;6.00;99.90;;;;;;6694966;88;20220;-76
2021/10/25 01:38:41;;;;;;;8.38;4.20;;;6.00;99.90;;;;;;6700216;88;20211;-75
2021/10/25 01:48:42;;;;;;;8.40;4.87;;;5.90;99.90;;;;;;6688438;88;20869;-76
2021/10/25 01:58:43;;;;;;;11.88;5.57;;;5.90;99.90;;;;;;6693886;88;20526;-76
2021/10/25 02:08:44;;;;;;;10.73;5.70;;;5.90;99.90;;;;;;6700461;88;21007;-76
2021/10/25 02:18:45;;;;;;;11.60;5.47;;;5.70;99.90;;;;;;6703839;88;20347;-75
2021/10/25 02:28:46;;;;;;;10.20;5.50;;;5.60;99.90;;;;;;6696182;88;20194;-76
2021/10/25 02:38:46;;;;;;;11.43;5.35;;;5.60;99.90;;;;;;6700984;88;20225;-76
2021/10/25 02:48:47;;;;;;;10.23;5.30;;;5.30;99.90;;;;;;6702083;88;20211;-76
2021/10/25 02:58:47;;;;;;;10.55;5.65;;;5.40;99.90;;;;;;6705938;88;20312;-76
2021/10/25 03:08:48;;;;;;;10.32;5.28;;;5.30;99.90;;;;;;6711405;88;20179;-75
2021/10/25 03:18:49;;;;;;;11.32;5.35;;;5.20;99.90;;;;;;6700898;88;20186;-76
2021/10/25 03:28:50;;;;;;;10.88;5.60;;;5.20;99.90;;;;;;6693508;88;20411;-76
2021/10/25 03:38:51;;;;;;;12.43;6.05;;;5.20;99.90;;;;;;6699988;88;20177;-76
2021/10/25 03:48:58;;;;;;;11.32;5.62;;;5.00;99.90;;;;;;6701559;88;20576;-76
2021/10/25 03:59:18;;;;;;;;;;;4.80;99.90;;;;;;6698102;88;20337;-76
2021/10/25 04:30:03;;;;;;;9.68;6.12;;;5.10;99.90;;;;;;6697542;88;20986;-76
2021/10/25 04:40:05;;;;;;;13.35;6.03;;;5.10;99.90;;;;;;6699529;88;20187;-75
2021/10/25 04:50:06;;;;;;;14.60;6.35;;;5.10;99.90;;;;;;6702797;88;20293;-75
2021/10/25 05:00:08;;;;;;;11.50;6.80;;;5.00;99.90;;;;;;6695012;88;20193;-75
2021/10/25 05:10:09;;;;;;;15.15;7.28;;;5.00;99.90;;;;;;6714064;88;20693;-75
2021/10/25 05:20:10;;;;;;;13.45;6.60;;;4.90;99.90;;;;;;6715155;88;20226;-75
2021/10/25 05:30:11;;;;;;;11.93;7.00;;;4.80;99.90;;;;;;6714776;88;20444;-75
2021/10/25 05:40:12;;;;;;;17.52;8.50;;;4.60;99.90;;;;;;6697880;88;20277;-76
2021/10/25 05:50:13;;;;;;;14.13;7.85;;;4.50;99.90;;;;;;6697836;88;20504;-75
2021/10/25 06:00:14;;;;;;;14.85;7.82;;;4.50;99.90;;;;;;6698964;88;20202;-75
2021/10/25 06:10:16;;;;;;;13.00;7.18;;;4.60;99.90;;;;;;6699302;88;20198;-75
2021/10/25 06:20:18;;;;;;;18.17;7.72;;;4.70;99.90;;;;;;6698743;88;20193;-75
2021/10/25 06:30:21;;;;;;;15.13;7.32;;;4.90;99.90;;;;;;6702935;88;20206;-75
2021/10/25 06:40:23;;;;;;;13.05;7.00;;;5.00;99.90;;;;;;6700223;88;20178;-74
2021/10/25 06:50:26;;;;;;;14.95;7.40;;;5.10;99.90;;;;;;6687683;88;20270;-74
2021/10/25 07:00:26;;;;;;;12.40;7.32;;;5.20;99.90;;;;;;6696153;88;20223;-75
2021/10/25 07:10:28;;;;;;;12.98;6.62;;;5.30;99.90;;;;;;6712983;88;20680;-76
2021/10/25 08:11:36;;;;;;;9.52;5.28;;;7.60;99.90;;;;;;6690878;88;20213;-74
2021/10/25 08:21:37;;;;;;;;;;;7.90;99.90;;;;;;6705613;88;20540;-75
2021/10/25 08:31:38;;;;;;;7.90;4.37;;;8.40;99.90;;;;;;6715465;88;20119;-75
2021/10/25 08:41:39;;;;;;;6.70;4.35;;;8.90;99.90;;;;;;6714776;88;20288;-76
2021/10/25 08:51:39;;;;;;;7.20;4.15;;;9.40;99.90;;;;;;6703120;88;20330;-75
2021/10/25 09:01:40;;;;;;;9.65;4.72;;;10.10;99.90;;;;;;6698456;88;20202;-76
2021/10/25 09:12:02;;;;;;;8.40;4.40;;;10.60;99.90;;;;;;6691401;88;20273;-76
2021/10/25 09:22:05;;;;;;;8.25;4.32;;;10.30;99.90;;;;;;6689977;88;20610;-77
2021/10/25 09:32:11;;;;;;;8.55;4.50;;;10.90;99.90;;;;;;6691252;88;20212;-77
2021/10/25 09:52:15;;;;;;;8.00;3.85;;;11.80;99.90;;;;;;6704335;88;20264;-74
2021/10/25 10:02:16;;;;;;;6.90;3.22;;;12.00;99.90;;;;;;6701039;88;20178;-77
2021/10/25 10:12:19;;;;;;;6.70;3.40;;;12.50;99.90;;;;;;6696082;88;20337;-76
2021/10/25 10:22:21;;;;;;;6.68;3.00;;;12.80;99.90;;;;;;6698674;88;20168;-77
2021/10/25 10:32:22;;;;;;;5.18;2.90;;;13.70;99.90;;;;;;6694209;88;20197;-77
2021/10/25 10:42:29;;;;;;;3.95;2.62;;;13.80;99.90;;;;;;6694965;88;20237;-77
2021/10/25 10:52:34;;;;;;;3.95;2.40;;;15.00;99.90;;;;;;6691354;88;20656;-76
2021/10/25 11:02:36;;;;;;;4.40;2.40;;;15.60;99.90;;;;;;6689596;88;20210;-75
2021/10/25 11:12:45;;;;;;;4.85;2.37;;;15.90;99.90;;;;;;6691856;88;20208;-77
2021/10/25 11:22:45;;;;;;;7.00;2.00;;;16.60;99.90;;;;;;6691958;88;20217;-76
2021/10/25 11:32:46;;;;;;;4.15;1.98;;;15.70;99.90;;;;;;6693170;88;20570;-75
2021/10/25 11:42:47;;;;;;;3.58;2.10;;;15.20;99.90;;;;;;6700440;88;20190;-76
2021/10/25 11:52:59;;;;;;;3.72;2.00;;;16.00;99.90;;;;;;6700000;88;20243;-75
2021/10/25 12:03:12;;;;;;;4.62;1.80;;;16.80;99.90;;;;;;6698848;88;20194;-76
2021/10/25 12:13:13;;;;;;;5.45;2.15;;;16.90;99.90;;;;;;6701319;88;20186;-75
2021/10/25 12:23:16;;;;;;;3.75;1.92;;;17.30;99.90;;;;;;6692750;88;20657;-75
2021/10/25 12:33:23;;;;;;;5.72;1.75;;;17.90;99.60;;;;;;6702106;88;20182;-76
2021/10/25 12:43:23;;;;;;;4.97;1.75;;;19.20;98.20;;;;;;6690284;88;20772;-76
2021/10/25 12:53:29;;;;;;;3.40;1.70;;;18.80;98.40;;;;;;6694072;88;20183;-76
2021/10/25 13:03:29;;;;;;;3.30;1.62;;;18.90;98.00;;;;;;6697291;88;20212;-76
2021/10/25 13:13:33;;;;;;;3.25;1.83;;;19.10;98.30;;;;;;6689391;88;20318;-76
2021/10/25 13:23:36;;;;;;;4.20;1.90;;;19.90;97.10;;;;;;6690860;88;20252;-76
2021/10/25 13:33:40;;;;;;;5.57;2.40;;;20.00;97.40;;;;;;6700348;88;20951;-76
2021/10/25 13:43:41;;;;;;;6.23;1.90;;;18.00;99.40;;;;;;6697555;88;20355;-76
2021/10/25 13:53:41;;;;;;;3.50;1.77;;;18.40;99.10;;;;;;6694605;88;20394;-77
2021/10/25 14:03:44;;;;;;;4.25;1.87;;;19.30;98.50;;;;;;6697613;88;20512;-78
2021/10/25 14:14:30;;;;;;;4.05;1.70;;;19.90;98.00;;;;;;6693131;88;20354;-78
2021/10/25 14:24:08;;;;;;;3.60;1.75;;;19.30;99.60;;;;;;6690881;88;20200;-76
2021/10/25 14:34:09;;;;;;;3.53;2.00;;;19.00;99.20;;;;;;6688412;88;20659;-75
2021/10/25 14:44:21;;;;;;;4.55;2.15;;;18.40;99.90;;;;;;6688238;88;20237;-77
2021/10/25 14:54:25;;;;;;;3.67;1.95;;;17.90;99.90;;;;;;6690731;88;20269;-75
2021/10/25 15:04:25;;;;;;;3.55;1.90;;;18.10;99.90;;;;;;6699367;88;20175;-75
2021/10/25 15:14:26;;;;;;;6.95;2.15;;;17.30;99.90;;;;;;6696944;88;20780;-76
2021/10/25 15:24:26;;;;;;;5.45;2.10;;;17.10;99.90;;;;;;6694153;88;20705;-77
2021/10/25 15:34:27;;;;;;;4.97;2.20;;;16.70;99.90;;;;;;6697383;88;20238;-76
2021/10/25 15:44:28;;;;;;;5.62;3.20;;;16.30;99.90;;;;;;6699351;88;20244;-77
2021/10/25 15:54:32;;;;;;;4.97;2.70;;;15.90;99.90;;;;;;6690665;88;20558;-75
2021/10/25 16:04:32;;;;;;;10.10;3.92;;;15.30;99.90;;;;;;6696470;88;20700;-73
2021/10/25 16:14:34;;;;;;;7.00;2.60;;;15.10;99.90;;;;;;6704627;88;20252;-74
2021/10/25 16:24:36;;;;;;;6.12;2.62;;;14.60;99.90;;;;;;6697770;88;20754;-76
2021/10/25 16:34:37;;;;;;;8.40;2.78;;;14.30;99.90;;;;;;6699355;88;20224;-77
2021/10/25 16:44:38;;;;;;;5.75;2.80;;;14.30;99.90;;;;;;6703977;88;20195;-74
2021/10/25 17:15:00;;;;;;;6.05;2.65;;;13.90;99.90;;;;;;6698723;88;20270;-75
2021/10/25 17:25:00;;;;;;;5.93;2.33;;;14.00;99.90;;;;;;6702358;88;20184;-76
2021/10/25 17:35:01;;;;;;;4.43;2.45;;;13.90;99.90;;;;;;6700166;88;20546;-77
2021/10/25 17:45:02;;;;;;;6.90;2.78;;;13.80;99.90;;;;;;6699439;88;20239;-74
2021/10/25 17:55:04;;;;;;;4.45;2.90;;;13.70;99.90;;;;;;6703006;88;20205;-76
2021/10/25 18:05:05;;;;;;;6.30;2.85;;;13.70;99.90;;;;;;6704422;88;20561;-75
2021/10/25 18:15:06;;;;;;;6.50;3.10;;;13.60;99.90;;;;;;6701146;88;20208;-76
2021/10/25 18:25:08;;;;;;;4.90;3.10;;;13.60;99.90;;;;;;6698223;88;20189;-77
2021/10/25 18:35:09;;;;;;;6.37;3.22;;;13.60;99.90;;;;;;6701004;88;20232;-77
2021/10/25 18:45:11;;;;;;;6.15;3.35;;;13.30;99.90;;;;;;6698291;88;20241;-76
2021/10/25 18:55:15;;;;;;;6.53;2.95;;;13.30;99.90;;;;;;6701294;88;20186;-77
2021/10/25 19:05:19;;;;;;;6.57;3.17;;;13.30;99.90;;;;;;6699294;88;20251;-78
2021/10/25 19:15:21;;;;;;;5.87;2.97;;;13.20;99.90;;;;;;6704225;88;20326;-76
2021/10/25 19:25:21;;;;;;;5.43;2.78;;;13.10;99.90;;;;;;6702821;88;20186;-75
2021/10/25 19:35:22;;;;;;;6.55;2.80;;;13.20;99.90;;;;;;6689337;88;20206;-75
2021/10/25 19:45:23;;;;;;;4.93;2.62;;;13.00;99.90;;;;;;6693677;88;20779;-75
2021/10/25 19:55:23;;;;;;;5.15;1.90;;;13.00;99.90;;;;;;6693504;88;20203;-76
2021/10/25 20:05:24;;;;;;;4.62;2.08;;;13.00;99.90;;;;;;6692184;88;20260;-76
2021/10/25 20:15:25;;;;;;;3.78;1.80;;;12.80;99.90;;;;;;6697791;88;20186;-75
2021/10/25 20:35:29;;;;;;;4.00;1.60;;;13.00;99.90;;;;;;6733451;88;20257;-78
2021/10/25 20:45:29;;;;;;;2.58;1.08;;;12.90;99.90;;;;;;6738023;88;21143;-79
2021/10/25 20:55:30;;;;;;;4.43;1.60;;;12.90;99.90;;;;;;6752849;88;20214;-78
2021/10/25 21:05:31;;;;;;;3.25;1.40;;;12.70;99.90;;;;;;6749080;88;20241;-77
2021/10/25 21:15:32;;;;;;;2.25;1.30;;;12.80;99.90;;;;;;6750649;88;20308;-78
2021/10/25 21:25:33;;;;;;;2.83;1.60;;;12.70;99.90;;;;;;6749431;88;20192;-78
2021/10/25 21:35:33;;;;;;;4.30;1.60;;;12.60;99.90;;;;;;6749605;88;20337;-78
2021/10/25 21:45:34;;;;;;;4.25;1.50;;;12.60;99.90;;;;;;6745120;88;20986;-78
2021/10/25 21:55:35;;;;;;;3.92;1.62;;;12.50;99.90;;;;;;6750772;88;20204;-77
2021/10/25 22:05:35;;;;;;;3.45;1.75;;;12.40;99.90;;;;;;6747989;88;20585;-78
2021/10/25 22:15:36;;;;;;;3.50;1.48;;;12.40;99.90;;;;;;6743924;88;20273;-78
2021/10/25 22:25:37;;;;;;;3.58;1.58;;;12.40;99.90;;;;;;6743443;88;20767;-78
2021/10/25 22:35:37;;;;;;;4.12;1.85;;;12.40;99.90;;;;;;6741058;88;20176;-78
2021/10/25 22:45:38;;;;;;;4.10;1.60;;;12.40;99.90;;;;;;6745150;88;20184;-79
2021/10/25 22:55:39;;;;;;;4.47;1.58;;;12.40;99.90;;;;;;6741964;88;20618;-78
2021/10/25 23:05:40;;;;;;;4.37;1.80;;;12.50;99.90;;;;;;6739451;88;20209;-78
2021/10/25 23:15:40;;;;;;;4.18;1.80;;;12.40;99.90;;;;;;6744988;88;20527;-78
2021/10/25 23:25:41;;;;;;;4.55;2.12;;;12.30;99.90;;;;;;6748395;88;20200;-79
2021/10/25 23:35:42;;;;;;;3.33;1.77;;;12.10;99.90;;;;;;6749297;88;20211;-78
2021/10/25 23:45:43;;;;;;;4.78;1.92;;;11.60;99.90;;;;;;6747480;88;20211;-79
2021/10/25 23:55:43;;;;;;;3.42;1.70;;;11.40;99.90;;;;;;6725744;88;20247;-78
